createdAt,value
2019-05-11T00:01:25.093Z,11.40
2019-05-11T00:03:55.316Z,13.55
2019-05-11T00:06:25.536Z,15.75
2019-05-11T00:08:55.781Z,15.88
2019-05-11T00:11:25.982Z,11.88
2019-05-11T00:13:56.227Z,11.22
2019-05-11T00:16:26.416Z,11.40
2019-05-11T00:18:56.658Z,15.23
2019-05-11T00:21:26.877Z,13.00
2019-05-11T00:23:57.083Z,12.55
2019-05-11T00:26:28.319Z,11.57
2019-05-11T00:28:58.554Z,17.82
2019-05-11T00:31:28.784Z,12.93
2019-05-11T00:33:59.002Z,14.35
2019-05-11T00:36:29.192Z,12.65
2019-05-11T00:38:59.424Z,16.90
2019-05-11T00:41:29.646Z,15.83
2019-05-11T00:43:59.840Z,12.07
2019-05-11T00:46:30.087Z,10.63
2019-05-11T00:49:00.276Z,15.63
2019-05-11T00:51:30.512Z,13.50
2019-05-11T00:54:00.723Z,13.03
2019-05-11T00:56:30.944Z,12.82
2019-05-11T00:59:01.138Z,16.67
2019-05-11T01:01:31.376Z,10.28
2019-05-11T01:04:01.657Z,12.05
2019-05-11T01:06:31.891Z,19.27
2019-05-11T01:09:02.170Z,15.78
2019-05-11T01:11:32.510Z,15.72
2019-05-11T01:14:02.711Z,15.60
2019-05-11T01:16:33.115Z,15.78
2019-05-11T01:19:04.373Z,16.30
2019-05-11T01:21:34.554Z,17.35
2019-05-11T01:24:04.780Z,15.30
2019-05-11T01:26:35.007Z,14.50
2019-05-11T01:29:05.246Z,15.90
2019-05-11T01:31:35.459Z,14.68
2019-05-11T01:34:05.664Z,16.25
2019-05-11T01:36:35.892Z,18.17
2019-05-11T01:39:07.184Z,16.93
2019-05-11T01:41:37.409Z,16.48
2019-05-11T01:44:07.636Z,28.60
2019-05-11T01:46:37.886Z,17.98
2019-05-11T01:49:08.084Z,16.20
2019-05-11T01:51:38.330Z,17.42
2019-05-11T01:54:08.573Z,18.67
2019-05-11T01:56:38.775Z,19.50
2019-05-11T01:59:09.000Z,21.37
2019-05-11T02:01:39.290Z,18.15
2019-05-11T02:04:09.484Z,16.95
2019-05-11T02:06:39.722Z,17.02
2019-05-11T02:09:09.958Z,17.12
2019-05-11T02:11:40.178Z,20.00
2019-05-11T02:14:10.411Z,14.70
2019-05-11T02:16:40.631Z,16.15
2019-05-11T02:19:10.846Z,17.35
2019-05-11T02:21:41.095Z,17.07
2019-05-11T02:24:11.298Z,18.75
2019-05-11T02:26:41.537Z,17.60
2019-05-11T02:29:11.736Z,15.53
2019-05-11T02:31:41.973Z,16.87
2019-05-11T02:34:12.237Z,18.65
2019-05-11T02:36:42.488Z,16.52
2019-05-11T02:39:13.701Z,24.25
2019-05-11T02:41:43.943Z,18.10
2019-05-11T02:44:14.159Z,15.68
2019-05-11T02:46:44.378Z,17.95
2019-05-11T02:49:14.622Z,17.80
2019-05-11T02:51:45.541Z,16.02
2019-05-11T02:54:16.169Z,15.18
2019-05-11T02:56:46.503Z,14.38
2019-05-11T02:59:16.720Z,19.98
2019-05-11T03:01:46.954Z,14.23
2019-05-11T03:04:17.163Z,14.83
2019-05-11T03:06:47.423Z,12.80
2019-05-11T03:09:17.652Z,17.73
2019-05-11T03:11:55.480Z,16.77
2019-05-11T03:14:19.749Z,14.45
2019-05-11T03:16:51.610Z,14.55
2019-05-11T03:19:21.835Z,18.37
2019-05-11T03:21:52.058Z,21.42
2019-05-11T03:24:24.179Z,16.55
2019-05-11T03:26:54.203Z,12.55
2019-05-11T03:29:24.418Z,19.00
2019-05-11T03:31:54.653Z,17.73
2019-05-11T03:34:25.963Z,17.85
2019-05-11T03:36:56.186Z,21.35
2019-05-11T03:39:26.425Z,17.95
2019-05-11T03:42:13.307Z,19.80
2019-05-11T03:44:28.463Z,23.80
2019-05-11T03:46:58.716Z,21.65
2019-05-11T03:49:28.907Z,23.80
2019-05-11T03:51:59.157Z,17.02
2019-05-11T03:54:29.363Z,22.42
2019-05-11T03:56:59.606Z,19.55
2019-05-11T03:59:29.842Z,26.20
2019-05-11T04:02:00.064Z,21.77
2019-05-11T04:04:30.299Z,24.10
2019-05-11T04:07:00.512Z,19.77
2019-05-11T04:09:30.749Z,23.22
2019-05-11T04:12:00.950Z,20.92
2019-05-11T04:14:31.181Z,20.62
2019-05-11T04:17:02.452Z,19.27
2019-05-11T04:19:32.686Z,21.93
2019-05-11T04:22:02.880Z,15.28
2019-05-11T04:24:33.127Z,18.73
2019-05-11T04:27:03.375Z,26.73
2019-05-11T04:29:33.582Z,24.57
2019-05-11T04:32:03.822Z,19.15
2019-05-11T04:34:34.041Z,22.27
2019-05-11T04:37:04.276Z,24.80
2019-05-11T04:39:34.472Z,22.93
2019-05-11T04:42:04.719Z,23.07
2019-05-11T04:44:34.966Z,24.77
2019-05-11T04:47:05.239Z,19.27
2019-05-11T04:49:35.468Z,23.92
2019-05-11T04:52:05.715Z,22.35
2019-05-11T04:54:35.926Z,20.12
2019-05-11T04:57:06.151Z,20.08
2019-05-11T04:59:36.348Z,20.75
2019-05-11T05:02:06.599Z,22.67
2019-05-11T05:04:36.839Z,22.15
2019-05-11T05:07:10.722Z,24.27
2019-05-11T05:09:42.513Z,20.60
2019-05-11T05:12:13.960Z,21.95
2019-05-11T05:14:42.602Z,19.77
2019-05-11T05:17:12.971Z,21.35
2019-05-11T05:19:44.136Z,24.80
2019-05-11T05:22:14.398Z,20.27
2019-05-11T05:24:44.592Z,18.85
2019-05-11T05:27:14.823Z,23.02
2019-05-11T05:29:45.587Z,21.65
2019-05-11T05:32:15.810Z,21.15
2019-05-11T05:34:46.073Z,19.95
2019-05-11T05:37:16.278Z,22.25
2019-05-11T05:39:46.472Z,19.55
2019-05-11T05:42:16.706Z,19.92
2019-05-11T05:44:46.908Z,22.95
2019-05-11T05:47:17.166Z,19.20
2019-05-11T05:49:47.387Z,19.57
2019-05-11T05:52:17.595Z,19.70
2019-05-11T05:54:47.858Z,18.73
2019-05-11T05:57:18.095Z,23.60
2019-05-11T05:59:48.319Z,22.25
2019-05-11T06:02:18.590Z,19.57
2019-05-11T06:04:49.920Z,20.82
2019-05-11T06:07:20.172Z,22.77
2019-05-11T06:09:50.360Z,20.43
2019-05-11T06:12:20.628Z,23.45
2019-05-11T06:14:50.824Z,22.58
2019-05-11T06:17:21.078Z,22.17
2019-05-11T06:19:51.280Z,21.87
2019-05-11T06:22:21.520Z,25.55
2019-05-11T06:24:51.724Z,23.98
2019-05-11T06:27:21.966Z,22.65
2019-05-11T06:29:52.156Z,25.97
2019-05-11T06:32:22.456Z,20.30
2019-05-11T06:34:52.682Z,19.85
2019-05-11T06:37:22.901Z,25.80
2019-05-11T06:39:53.122Z,21.25
2019-05-11T06:42:23.371Z,21.93
2019-05-11T06:44:53.555Z,17.90
2019-05-11T06:47:23.791Z,17.25
2019-05-11T06:49:54.040Z,26.25
2019-05-11T06:52:24.254Z,18.80
2019-05-11T06:54:54.479Z,13.53
2019-05-11T06:57:24.672Z,16.67
2019-05-11T06:59:54.927Z,12.37
2019-05-11T07:02:25.142Z,14.68
2019-05-11T07:04:55.365Z,8.00
2019-05-11T07:07:25.596Z,9.60
2019-05-11T07:09:55.751Z,9.55
2019-05-11T07:12:27.704Z,6.33
2019-05-11T07:14:57.803Z,7.80
2019-05-11T07:17:28.018Z,9.08
2019-05-11T07:19:58.238Z,9.65
2019-05-11T07:22:28.420Z,7.80
2019-05-11T07:24:58.705Z,8.55
2019-05-11T07:27:28.875Z,6.00
2019-05-11T07:29:59.061Z,5.75
2019-05-11T07:32:29.490Z,8.13
2019-05-11T07:34:59.678Z,9.25
2019-05-11T07:37:29.980Z,10.88
2019-05-11T07:40:00.187Z,9.00
2019-05-11T07:42:30.431Z,8.03
2019-05-11T07:45:00.727Z,7.05
2019-05-11T07:47:30.954Z,13.70
2019-05-11T07:50:01.201Z,7.67
2019-05-11T07:52:31.447Z,10.03
2019-05-11T07:55:01.636Z,11.43
2019-05-11T07:57:31.880Z,11.15
2019-05-11T08:00:02.068Z,14.07
2019-05-11T08:02:32.467Z,11.57
2019-05-11T08:05:02.849Z,12.53
2019-05-11T08:07:33.052Z,9.00
2019-05-11T08:10:04.482Z,8.20
2019-05-11T08:12:34.670Z,6.83
2019-05-11T08:15:12.402Z,6.97
2019-05-11T08:17:38.338Z,13.75
2019-05-11T08:20:09.584Z,9.43
2019-05-11T08:22:39.864Z,12.03
2019-05-11T08:25:11.152Z,8.10
2019-05-11T08:27:41.390Z,4.40
2019-05-11T08:30:12.407Z,8.45
2019-05-11T08:32:42.590Z,9.33
2019-05-11T08:35:12.920Z,5.50
2019-05-11T08:37:43.111Z,11.33
2019-05-11T08:40:15.412Z,12.30
2019-05-11T08:42:47.962Z,8.50
2019-05-11T08:45:24.264Z,11.95
2019-05-11T08:47:49.482Z,9.10
2019-05-11T08:50:19.704Z,9.05
2019-05-11T08:52:49.924Z,15.85
2019-05-11T08:55:20.123Z,9.55
2019-05-11T08:57:50.350Z,11.38
2019-05-11T09:00:20.678Z,9.93
2019-05-11T09:02:51.179Z,6.75
2019-05-11T09:05:21.506Z,7.58
2019-05-11T09:07:51.743Z,10.35
2019-05-11T09:10:21.905Z,12.65
2019-05-11T09:12:52.144Z,8.68
2019-05-11T09:15:33.517Z,8.73
2019-05-11T09:17:54.122Z,9.40
2019-05-11T09:20:24.282Z,8.45
2019-05-11T09:22:54.522Z,9.58
2019-05-11T09:25:24.712Z,8.13
2019-05-11T09:27:54.952Z,11.00
2019-05-11T09:30:26.158Z,10.28
2019-05-11T09:32:58.156Z,7.65
2019-05-11T09:35:29.264Z,8.88
2019-05-11T09:37:59.718Z,10.05
2019-05-11T09:40:29.876Z,7.90
2019-05-11T09:43:00.116Z,7.12
2019-05-11T09:45:44.676Z,10.58
2019-05-11T09:48:02.160Z,7.37
2019-05-11T09:50:32.319Z,8.05
2019-05-11T09:53:02.558Z,8.25
2019-05-11T09:55:32.820Z,11.45
2019-05-11T09:58:03.159Z,9.93
2019-05-11T10:00:33.925Z,7.65
2019-05-11T10:03:04.359Z,10.48
2019-05-11T10:05:34.539Z,7.12
2019-05-11T10:08:04.767Z,8.60
2019-05-11T10:10:38.139Z,7.92
2019-05-11T10:13:13.758Z,11.80
2019-05-11T10:15:44.041Z,9.15
2019-05-11T10:18:14.264Z,12.47
2019-05-11T10:20:44.445Z,5.80
2019-05-11T10:23:14.606Z,6.95
2019-05-11T10:25:44.808Z,6.62
2019-05-11T10:28:15.000Z,7.90
2019-05-11T10:30:45.192Z,8.55
2019-05-11T10:33:15.463Z,6.42
2019-05-11T10:35:45.661Z,13.58
2019-05-11T10:38:17.950Z,8.80
2019-05-11T10:40:48.382Z,13.18
2019-05-11T10:43:19.576Z,9.60
2019-05-11T10:45:49.799Z,8.28
2019-05-11T10:48:20.011Z,8.68
2019-05-11T10:50:50.230Z,8.05
2019-05-11T10:53:22.674Z,9.30
2019-05-11T10:55:52.912Z,9.55
2019-05-11T10:58:23.108Z,7.90
2019-05-11T11:00:53.382Z,12.10
2019-05-11T11:03:23.576Z,8.25
2019-05-11T11:05:53.772Z,9.63
2019-05-11T11:08:24.167Z,10.10
2019-05-11T11:10:54.376Z,13.65
2019-05-11T11:13:24.607Z,8.63
2019-05-11T11:15:54.869Z,9.53
2019-05-11T11:18:25.054Z,8.85
2019-05-11T11:20:55.279Z,13.83
2019-05-11T11:23:25.446Z,10.05
2019-05-11T11:25:55.678Z,15.23
2019-05-11T11:28:27.886Z,10.82
2019-05-11T11:30:58.470Z,9.53
2019-05-11T11:33:28.833Z,11.75
2019-05-11T11:35:58.999Z,8.23
2019-05-11T11:38:29.198Z,8.70
2019-05-11T11:40:59.355Z,7.90
2019-05-11T11:43:29.554Z,9.60
2019-05-11T11:45:59.743Z,11.28
2019-05-11T11:48:30.012Z,9.48
2019-05-11T11:51:00.230Z,9.08
2019-05-11T11:53:30.387Z,10.75
2019-05-11T11:56:00.609Z,8.90
2019-05-11T11:58:30.843Z,13.45
2019-05-11T12:01:01.152Z,10.10
2019-05-11T12:03:31.307Z,9.83
2019-05-11T12:06:01.507Z,11.75
2019-05-11T12:08:31.736Z,9.80
2019-05-11T12:11:01.899Z,10.38
2019-05-11T12:13:32.217Z,10.58
2019-05-11T12:16:02.436Z,11.35
2019-05-11T12:18:32.699Z,11.93
2019-05-11T12:21:02.936Z,9.95
2019-05-11T12:23:33.126Z,7.65
2019-05-11T12:26:03.386Z,13.45
2019-05-11T12:28:33.549Z,7.33
2019-05-11T12:31:03.738Z,9.75
2019-05-11T12:33:34.079Z,11.08
2019-05-11T12:36:04.498Z,10.90
2019-05-11T12:38:34.697Z,9.40
2019-05-11T12:41:08.557Z,7.78
2019-05-11T12:43:38.193Z,9.93
2019-05-11T12:46:09.471Z,11.05
2019-05-11T12:48:39.682Z,12.03
2019-05-11T12:51:09.871Z,10.35
2019-05-11T12:53:40.104Z,10.10
2019-05-11T12:56:10.296Z,11.80
2019-05-11T12:58:40.478Z,9.18
2019-05-11T13:01:10.647Z,10.82
2019-05-11T13:03:40.888Z,9.45
2019-05-11T13:06:11.075Z,10.45
2019-05-11T13:08:41.300Z,8.43
2019-05-11T13:11:11.516Z,8.85
2019-05-11T13:13:41.720Z,10.75
2019-05-11T13:16:11.956Z,12.88
2019-05-11T13:18:42.139Z,20.32
2019-05-11T13:21:12.857Z,11.88
2019-05-11T13:23:44.539Z,12.15
2019-05-11T13:26:17.791Z,8.73
2019-05-11T13:28:48.509Z,11.00
2019-05-11T13:31:18.957Z,11.73
2019-05-11T13:33:49.804Z,15.68
2019-05-11T13:36:20.130Z,11.08
2019-05-11T13:38:50.309Z,16.00
2019-05-11T13:41:20.601Z,12.78
2019-05-11T13:43:50.882Z,9.98
2019-05-11T13:46:21.067Z,12.18
2019-05-11T13:48:51.356Z,14.47
2019-05-11T13:51:21.597Z,9.15
2019-05-11T13:53:51.864Z,11.73
2019-05-11T13:56:24.002Z,12.53
2019-05-11T13:58:57.810Z,11.05
2019-05-11T14:01:28.690Z,11.40
2019-05-11T14:03:58.911Z,7.25
2019-05-11T14:06:29.163Z,16.62
2019-05-11T14:08:59.375Z,11.28
2019-05-11T14:11:30.629Z,9.00
2019-05-11T14:14:02.300Z,12.60
2019-05-11T14:16:32.577Z,12.33
2019-05-11T14:19:02.844Z,9.70
2019-05-11T14:21:34.096Z,10.55
2019-05-11T14:24:07.579Z,10.98
2019-05-11T14:26:39.401Z,11.08
2019-05-11T14:29:10.539Z,8.73
2019-05-11T14:31:40.831Z,11.90
2019-05-11T14:34:11.003Z,14.15
2019-05-11T14:36:42.230Z,9.30
2019-05-11T14:39:12.436Z,10.18
2019-05-11T14:41:45.069Z,11.35
2019-05-11T14:44:18.121Z,11.38
2019-05-11T14:46:49.015Z,13.53
2019-05-11T14:49:19.358Z,12.25
2019-05-11T14:51:54.457Z,8.85
2019-05-11T14:54:24.680Z,12.18
2019-05-11T14:56:54.860Z,9.10
2019-05-11T14:59:25.022Z,10.88
2019-05-11T15:01:55.282Z,9.68
2019-05-11T15:04:25.432Z,7.62
2019-05-11T15:06:57.821Z,10.00
2019-05-11T15:09:28.534Z,11.73
2019-05-11T15:11:58.924Z,10.65
2019-05-11T15:14:29.094Z,13.32
2019-05-11T15:16:59.303Z,11.08
2019-05-11T15:19:30.336Z,14.25
2019-05-11T15:22:00.530Z,9.28
2019-05-11T15:24:30.715Z,9.63
2019-05-11T15:27:00.893Z,11.78
2019-05-11T15:29:31.093Z,11.78
2019-05-11T15:32:02.388Z,16.90
2019-05-11T15:34:32.612Z,14.68
2019-05-11T15:37:02.799Z,11.50
2019-05-11T15:39:32.990Z,11.53
2019-05-11T15:42:09.784Z,12.78
2019-05-11T15:44:35.015Z,11.15
2019-05-11T15:47:07.614Z,13.85
2019-05-11T15:49:37.645Z,14.07
2019-05-11T15:52:08.996Z,14.58
2019-05-11T15:54:39.219Z,11.45
2019-05-11T15:57:09.390Z,14.93
2019-05-11T15:59:39.598Z,19.32
2019-05-11T16:02:09.871Z,11.53
2019-05-11T16:04:41.355Z,11.35
2019-05-11T16:07:11.732Z,14.10
2019-05-11T16:09:41.932Z,11.18
2019-05-11T16:12:12.202Z,13.90
2019-05-11T16:14:42.506Z,13.60
2019-05-11T16:17:12.698Z,12.40
2019-05-11T16:19:42.858Z,11.53
2019-05-11T16:22:13.134Z,15.70
2019-05-11T16:24:43.335Z,9.55
2019-05-11T16:27:13.522Z,11.05
2019-05-11T16:29:43.720Z,9.93
2019-05-11T16:32:13.915Z,13.22
2019-05-11T16:34:44.083Z,12.93
2019-05-11T16:37:14.291Z,12.78
2019-05-11T16:39:46.684Z,12.18
2019-05-11T16:42:16.270Z,17.30
2019-05-11T16:44:48.204Z,11.03
2019-05-11T16:47:18.320Z,10.28
2019-05-11T16:49:48.482Z,14.47
2019-05-11T16:52:18.686Z,11.65
2019-05-11T16:54:48.888Z,11.18
2019-05-11T16:57:19.084Z,9.48
2019-05-11T16:59:49.298Z,15.05
2019-05-11T17:02:19.584Z,12.70
2019-05-11T17:04:49.738Z,12.40
2019-05-11T17:07:20.010Z,14.73
2019-05-11T17:09:50.263Z,16.82
2019-05-11T17:12:20.469Z,10.53
2019-05-11T17:15:00.337Z,8.35
2019-05-11T17:17:30.526Z,14.98
2019-05-11T17:20:00.756Z,13.20
2019-05-11T17:22:30.948Z,13.18
2019-05-11T17:25:01.188Z,13.98
2019-05-11T17:27:31.376Z,10.70
2019-05-11T17:30:01.605Z,11.43
2019-05-11T17:32:31.790Z,10.35
2019-05-11T17:35:02.000Z,12.18
2019-05-11T17:37:33.210Z,8.00
2019-05-11T17:40:04.708Z,10.58
2019-05-11T17:42:34.940Z,13.25
2019-05-11T17:45:08.986Z,12.60
2019-05-11T17:47:39.189Z,10.82
2019-05-11T17:50:09.479Z,14.53
2019-05-11T17:52:39.712Z,12.95
2019-05-11T17:55:09.870Z,15.13
2019-05-11T17:57:40.120Z,18.05
2019-05-11T18:00:11.199Z,12.07
2019-05-11T18:02:41.404Z,6.53
2019-05-11T18:05:11.728Z,11.57
2019-05-11T18:07:43.482Z,9.23
2019-05-11T18:10:18.210Z,9.15
2019-05-11T18:12:49.932Z,12.80
2019-05-11T18:15:20.123Z,11.90
2019-05-11T18:17:50.287Z,8.05
2019-05-11T18:20:21.827Z,9.65
2019-05-11T18:22:52.477Z,7.42
2019-05-11T18:25:22.667Z,7.58
2019-05-11T18:27:52.882Z,10.72
2019-05-11T18:30:23.068Z,14.53
2019-05-11T18:32:53.238Z,13.60
2019-05-11T18:35:23.468Z,10.03
2019-05-11T18:37:53.699Z,7.30
2019-05-11T18:40:23.922Z,9.55
2019-05-11T18:42:54.271Z,10.25
2019-05-11T18:45:24.470Z,8.93
2019-05-11T18:47:54.628Z,7.62
2019-05-11T18:50:32.090Z,7.97
2019-05-11T18:52:58.135Z,7.67
2019-05-11T18:55:28.466Z,6.40
2019-05-11T18:57:58.688Z,10.48
2019-05-11T19:00:28.863Z,5.62
2019-05-11T19:03:00.065Z,6.45
2019-05-11T19:05:31.329Z,7.65
2019-05-11T19:08:02.807Z,5.42
2019-05-11T19:10:32.983Z,8.48
2019-05-11T19:13:03.240Z,6.08
2019-05-11T19:15:33.422Z,16.00
2019-05-11T19:18:03.719Z,6.12
2019-05-11T19:20:45.452Z,7.40
2019-05-11T19:23:08.208Z,7.37
2019-05-11T19:25:37.691Z,5.28
2019-05-11T19:28:08.472Z,11.22
2019-05-11T19:30:39.040Z,6.53
2019-05-11T19:33:11.133Z,7.12
2019-05-11T19:35:41.034Z,11.78
2019-05-11T19:38:11.281Z,10.30
2019-05-11T19:40:41.476Z,8.05
2019-05-11T19:43:11.649Z,10.58
2019-05-11T19:45:42.426Z,6.03
2019-05-11T19:48:12.882Z,6.95
2019-05-11T19:50:43.038Z,7.97
2019-05-11T19:53:13.240Z,6.28
2019-05-11T19:55:43.402Z,6.65
2019-05-11T19:58:13.679Z,11.85
2019-05-11T20:00:43.823Z,9.73
2019-05-11T20:03:14.033Z,10.03
2019-05-11T20:05:44.182Z,9.70
2019-05-11T20:08:14.385Z,8.60
2019-05-11T20:10:44.542Z,10.35
2019-05-11T20:13:14.724Z,6.30
2019-05-11T20:15:44.911Z,6.28
2019-05-11T20:18:15.457Z,2.85
2019-05-11T20:20:47.982Z,2.05
2019-05-11T20:23:17.400Z,5.95
2019-05-11T20:25:48.548Z,0.53
2019-05-11T20:28:18.734Z,3.05
2019-05-11T20:30:48.880Z,2.98
2019-05-11T20:33:19.151Z,2.27
2019-05-11T20:35:49.269Z,3.62
2019-05-11T20:38:19.448Z,0.78
2019-05-11T20:40:49.612Z,1.57
2019-05-11T20:43:19.811Z,2.87
2019-05-11T20:45:49.976Z,1.32
2019-05-11T20:48:20.263Z,0.65
2019-05-11T20:50:50.447Z,0.20
2019-05-11T20:53:20.695Z,3.92
2019-05-11T20:55:50.921Z,1.32
2019-05-11T20:58:21.123Z,1.02
2019-05-11T21:00:51.323Z,1.92
2019-05-11T21:03:21.503Z,0.53
2019-05-11T21:05:51.721Z,0.30
2019-05-11T21:08:21.945Z,2.10
2019-05-11T21:10:52.123Z,2.80
2019-05-11T21:13:22.310Z,2.83
2019-05-11T21:15:52.507Z,2.08
2019-05-11T21:18:22.738Z,3.23
2019-05-11T21:20:52.882Z,2.83
2019-05-11T21:23:23.146Z,3.90
2019-05-11T21:25:53.368Z,5.12
2019-05-11T21:28:23.562Z,4.97
2019-05-11T21:30:53.754Z,3.65
2019-05-11T21:33:23.931Z,4.55
2019-05-11T21:35:54.123Z,6.78
2019-05-11T21:38:24.318Z,5.85
2019-05-11T21:40:54.511Z,4.12
2019-05-11T21:43:24.761Z,3.15
2019-05-11T21:45:54.984Z,4.22
2019-05-11T21:48:25.267Z,4.85
2019-05-11T21:50:55.495Z,8.43
2019-05-11T21:53:25.771Z,2.92
2019-05-11T21:55:55.967Z,3.83
2019-05-11T21:58:28.413Z,3.55
2019-05-11T22:00:58.106Z,3.47
2019-05-11T22:03:28.300Z,2.75
2019-05-11T22:05:58.520Z,3.12
2019-05-11T22:08:28.676Z,3.60
2019-05-11T22:11:00.016Z,5.28
2019-05-11T22:13:30.418Z,2.25
2019-05-11T22:16:00.656Z,1.75
2019-05-11T22:18:31.462Z,3.70
2019-05-11T22:21:01.840Z,2.60
2019-05-11T22:23:32.095Z,2.00
2019-05-11T22:26:02.313Z,2.45
2019-05-11T22:28:32.535Z,2.83
2019-05-11T22:31:02.780Z,2.25
2019-05-11T22:33:34.480Z,1.25
2019-05-11T22:36:04.764Z,1.25
2019-05-11T22:38:38.556Z,0.98
2019-05-11T22:41:09.075Z,4.58
2019-05-11T22:43:39.471Z,0.57
2019-05-11T22:46:10.611Z,0.62
2019-05-11T22:48:40.835Z,0.70
2019-05-11T22:51:10.996Z,0.40
2019-05-11T22:53:46.722Z,1.10
2019-05-11T22:56:13.009Z,1.65
2019-05-11T22:58:43.206Z,0.23
2019-05-11T23:01:13.362Z,0.78
2019-05-11T23:03:43.592Z,0.53
2019-05-11T23:06:13.739Z,0.53
2019-05-11T23:08:43.927Z,2.30
2019-05-11T23:11:14.120Z,0.20
2019-05-11T23:13:44.340Z,2.27
2019-05-11T23:16:14.557Z,0.30
2019-05-11T23:18:44.750Z,0.98
2019-05-11T23:21:15.020Z,2.00
2019-05-11T23:23:45.258Z,1.22
2019-05-11T23:26:17.648Z,1.87
2019-05-11T23:28:48.699Z,0.30
2019-05-11T23:31:18.962Z,0.55
2019-05-11T23:33:49.146Z,2.05
2019-05-11T23:36:19.348Z,2.40
2019-05-11T23:38:49.523Z,0.53
2019-05-11T23:41:24.707Z,0.28
2019-05-11T23:43:52.595Z,0.10
2019-05-11T23:46:22.790Z,1.95
2019-05-11T23:48:52.995Z,0.33
2019-05-11T23:51:23.147Z,0.40
2019-05-11T23:53:54.443Z,0.25
2019-05-11T23:56:24.632Z,0.20
2019-05-11T23:58:54.853Z,0.23
